Fargo, ND

12:44 PM CST del 08 Febbraio 2016 (GMT -0600)
Hector International | | Change Station
CLOSE
Current Station
Aeroporto
Location: Fargo,
Altitudine: 899 ft
Stazioni meteo nelle vicinanze
Avvisi attivi: Winter Weather Advisory Notifica attiva: Public Information Statement

Alt. 899 ft 46.91 °N, 96.81 °W | Updated 2 minutes ago

Heavy Snow
Forte neve
15 °F
Sembra -4 °F
N
25
Vento Variabile Vento da Nord
Gusts 37 mph

Oggi
Massima -- | Minima -- °F
--% Possibilità di precip.
Ieri
Massima -- | Minima -- °F
Precip. -- in
Pressione 30.18 in
Visibilità 0.2 miglia
Nuvole
Raffreddamento del vento -4 °F
Punto di rugiada 10 °F
Umidità 80%
Piovosità 0.03 in
Spessore del manto nevoso Non disponibile.
7:43 AM 5:40 PM
Luna nuova, 0% visible
SPECI KFAR 081842Z 35022G32KT 1/4SM +SN VV012 M09/M12 A3018 RMK AO2 PK WND 35032/1837 SNB03 P0000 T10941122 $
Pressione 30.18 in
Visibilità 0.2 miglia
Nuvole
Raffreddamento del vento -4 °F
Punto di rugiada 10 °F
Umidità 80%
Piovosità 0.03 in
Spessore del manto nevoso Non disponibile.
7:43 AM 5:40 PM
Luna nuova, 0% visible
SPECI KFAR 081842Z 35022G32KT 1/4SM +SN VV012 M09/M12 A3018 RMK AO2 PK WND 35032/1837 SNB03 P0000 T10941122 $

10-Day Weather Forecast

Almanac

Astronomia

Feb. 08, 2016 Alba Tramonto
Ora attuale
Crepuscolo civile
Crepuscolo nautico
Crepuscolo astronomico
Luna
Estensione della luce visibile
Lunghezza del giorno
Tomorrow will be .
, % of the Moon is Illuminated

Gli estremi di oggi

State Highs State Lows

Community

WunderPhotos

Upload Photos

1,891,481 foto caricate!

WunderBlog® & News

Nearby

Qualità dell'aria

  Qualità dell'aria Indice AQ Inquinante
Not available.

Profondità neve

Stazione Profondità Altitudine

Attività sismica

Città  Distanza Mag. Data & Ora
Minimo Magnitudo Mostrato è 2.5.

Temperature delle acque costiere

Località Temperatura

Stations

Stazioni meteo nelle vicinanze

Ubicazione della stazione Temp. Raffreddamento del vento Punto di rugiada Umidità Vento Precip. Alt. Aggiornato Tipo
                   

Watches & Warnings

Winter Weather Advisory
Issued: 11:14 CST Feb. 8, 2016 – National Weather Service

... Winter Weather Advisory now in effect until 6 PM CST this
evening...

* timing... expect snow showers and gusty winds to continue through
the afternoon.

* Winds / visibilities... winds gusting as high as 40 mph will
cause areas lower visibility to a mile or less with snow
showers.

* Impacts... plan on periodic low visibility affecting travel.

* Winds... northwest 20 to 30 mph with gusts up to 40 mph.

Precautionary/preparedness actions...

A Winter Weather Advisory for blowing snow means that
visibilities will be limited due to strong winds blowing snow
around. Use caution when traveling... especially in open areas.